createdAt,value
2018-11-06T00:02:13.584Z,90.45
2018-11-06T00:04:47.767Z,89.80
2018-11-06T00:07:16.756Z,90.49
2018-11-06T00:09:45.808Z,90.07
2018-11-06T00:12:14.784Z,90.22
2018-11-06T00:14:43.702Z,89.72
2018-11-06T00:17:12.695Z,89.51
2018-11-06T00:19:41.604Z,90.17
2018-11-06T00:22:10.554Z,89.74
2018-11-06T00:24:39.518Z,89.79
2018-11-06T00:27:08.625Z,89.26
2018-11-06T00:29:37.733Z,89.88
2018-11-06T00:32:06.717Z,89.59
2018-11-06T00:34:35.669Z,90.42
2018-11-06T00:37:04.648Z,90.78
2018-11-06T00:39:33.598Z,90.44
2018-11-06T00:42:02.608Z,90.95
2018-11-06T00:44:31.565Z,90.93
2018-11-06T00:47:00.521Z,91.93
2018-11-06T00:49:29.522Z,91.82
2018-11-06T00:51:58.433Z,92.14
2018-11-06T00:54:27.451Z,93.22
2018-11-06T00:56:56.367Z,92.37
2018-11-06T00:59:25.308Z,91.89
2018-11-06T01:01:54.317Z,92.42
2018-11-06T01:04:23.285Z,91.20
2018-11-06T01:06:52.251Z,91.41
2018-11-06T01:09:21.372Z,91.61
2018-11-06T01:11:50.330Z,91.44
2018-11-06T01:14:19.445Z,92.28
2018-11-06T01:16:48.407Z,92.15
2018-11-06T01:19:17.331Z,91.67
2018-11-06T01:21:46.270Z,91.75
2018-11-06T01:24:15.237Z,91.95
2018-11-06T01:26:44.155Z,91.99
2018-11-06T01:29:13.110Z,92.37
2018-11-06T01:31:42.011Z,91.96
2018-11-06T01:34:10.986Z,91.61
2018-11-06T01:36:39.988Z,92.73
2018-11-06T01:39:09.743Z,91.53
2018-11-06T01:41:38.715Z,91.44
2018-11-06T01:44:08.049Z,91.85
2018-11-06T01:46:37.173Z,92.57
2018-11-06T01:49:06.260Z,92.77
2018-11-06T01:51:35.363Z,91.97
2018-11-06T01:54:04.417Z,92.42
2018-11-06T01:56:33.421Z,92.79
2018-11-06T01:59:02.478Z,93.07
2018-11-06T02:01:31.506Z,93.22
2018-11-06T02:04:00.490Z,93.63
2018-11-06T02:06:29.421Z,92.91
2018-11-06T02:08:58.341Z,93.18
2018-11-06T02:11:27.298Z,93.93
2018-11-06T02:13:56.214Z,93.45
2018-11-06T02:16:25.196Z,92.75
2018-11-06T02:18:54.127Z,92.89
2018-11-06T02:21:23.079Z,92.58
2018-11-06T02:23:52.014Z,92.62
2018-11-06T02:26:20.975Z,93.52
2018-11-06T02:28:49.940Z,93.52
2018-11-06T02:31:18.899Z,92.63
2018-11-06T02:33:47.860Z,93.02
2018-11-06T02:36:16.761Z,92.93
2018-11-06T02:38:45.878Z,92.87
2018-11-06T02:41:14.969Z,93.01
2018-11-06T02:43:43.919Z,92.51
2018-11-06T02:46:12.927Z,93.94
2018-11-06T02:48:41.842Z,93.68
2018-11-06T02:51:11.548Z,93.91
2018-11-06T02:53:40.534Z,93.48
2018-11-06T02:56:09.545Z,93.61
2018-11-06T02:58:38.469Z,93.13
2018-11-06T03:01:07.621Z,93.88
2018-11-06T03:03:42.325Z,93.70
2018-11-06T03:06:12.590Z,93.44
2018-11-06T03:08:42.036Z,93.53
2018-11-06T03:11:11.051Z,93.80
2018-11-06T03:13:40.040Z,93.17
2018-11-06T03:16:09.002Z,94.05
2018-11-06T03:18:37.995Z,92.96
2018-11-06T03:21:06.936Z,93.01
2018-11-06T03:23:35.868Z,92.51
2018-11-06T03:26:04.933Z,93.59
2018-11-06T03:28:33.935Z,94.04
2018-11-06T03:31:02.879Z,94.02
2018-11-06T03:33:31.851Z,93.13
2018-11-06T03:36:00.835Z,93.37
2018-11-06T03:38:29.905Z,93.64
2018-11-06T03:40:59.022Z,94.05
2018-11-06T03:43:28.040Z,93.44
2018-11-06T03:45:57.009Z,94.03
2018-11-06T03:48:26.034Z,94.42
2018-11-06T03:50:55.131Z,94.98
2018-11-06T03:53:24.108Z,95.76
2018-11-06T03:55:53.050Z,95.59
2018-11-06T03:58:22.002Z,94.55
2018-11-06T04:00:50.981Z,94.55
2018-11-06T04:03:19.959Z,94.48
2018-11-06T04:05:48.913Z,94.72
2018-11-06T04:08:17.847Z,93.66
2018-11-06T04:10:46.833Z,94.18
2018-11-06T04:13:15.732Z,94.32
2018-11-06T04:15:44.722Z,93.59
2018-11-06T04:18:13.657Z,94.56
2018-11-06T04:20:42.593Z,94.66
2018-11-06T04:23:11.538Z,95.18
2018-11-06T04:25:40.597Z,94.62
2018-11-06T04:28:09.581Z,94.33
2018-11-06T04:30:38.509Z,93.51
2018-11-06T04:33:07.447Z,93.83
2018-11-06T04:35:36.419Z,93.38
2018-11-06T04:38:05.398Z,93.39
2018-11-06T04:40:34.387Z,93.91
2018-11-06T04:43:03.355Z,94.15
2018-11-06T04:45:32.310Z,93.71
2018-11-06T04:48:01.269Z,92.87
2018-11-06T04:50:30.223Z,93.48
2018-11-06T04:52:59.181Z,93.83
2018-11-06T04:55:28.170Z,93.93
2018-11-06T04:57:57.132Z,93.58
2018-11-06T05:00:26.102Z,94.56
2018-11-06T05:02:55.036Z,93.65
2018-11-06T05:05:23.966Z,93.97
2018-11-06T05:07:52.881Z,94.27
2018-11-06T05:10:22.709Z,94.10
2018-11-06T05:12:51.653Z,93.76
2018-11-06T05:15:20.589Z,92.88
2018-11-06T05:17:49.533Z,93.09
2018-11-06T05:20:18.711Z,93.26
2018-11-06T05:22:47.969Z,93.01
2018-11-06T05:25:16.995Z,93.93
2018-11-06T05:27:45.941Z,93.59
2018-11-06T05:30:14.942Z,94.18
2018-11-06T05:32:44.620Z,93.88
2018-11-06T05:35:13.620Z,93.98
2018-11-06T05:37:42.604Z,94.41
2018-11-06T05:40:51.237Z,94.31
2018-11-06T05:43:20.143Z,93.84
2018-11-06T05:45:49.154Z,93.86
2018-11-06T05:48:18.160Z,94.00
2018-11-06T05:50:47.301Z,92.73
2018-11-06T05:53:17.683Z,92.62
2018-11-06T05:55:46.844Z,92.55
2018-11-06T05:58:15.865Z,92.62
2018-11-06T06:00:44.839Z,93.41
2018-11-06T06:03:13.772Z,92.67
2018-11-06T06:05:42.749Z,92.53
2018-11-06T06:08:11.683Z,92.12
2018-11-06T06:10:40.626Z,92.43
2018-11-06T06:13:09.637Z,92.47
2018-11-06T06:15:38.597Z,92.75
2018-11-06T06:18:07.562Z,92.56
2018-11-06T06:20:36.503Z,91.65
2018-11-06T06:23:05.852Z,92.09
2018-11-06T06:25:34.825Z,91.36
2018-11-06T06:28:03.754Z,92.10
2018-11-06T06:30:32.721Z,92.86
2018-11-06T06:33:01.622Z,93.09
2018-11-06T06:35:30.595Z,92.67
2018-11-06T06:37:59.582Z,92.72
2018-11-06T06:40:28.518Z,92.69
2018-11-06T06:42:57.459Z,92.65
2018-11-06T06:45:26.427Z,92.35
2018-11-06T06:47:55.436Z,92.32
2018-11-06T06:50:24.372Z,92.39
2018-11-06T06:52:53.296Z,92.35
2018-11-06T06:55:22.211Z,92.88
2018-11-06T06:57:51.228Z,92.52
2018-11-06T07:00:21.453Z,92.81
2018-11-06T07:02:50.526Z,92.34
2018-11-06T07:05:20.663Z,92.28
2018-11-06T07:07:49.632Z,91.75
2018-11-06T07:10:19.995Z,92.14
2018-11-06T07:12:49.554Z,91.43
2018-11-06T07:15:19.652Z,91.93
2018-11-06T07:17:49.458Z,92.47
2018-11-06T07:20:19.754Z,92.28
2018-11-06T07:22:48.709Z,92.60
2018-11-06T07:25:17.688Z,92.81
2018-11-06T07:27:47.699Z,93.25
2018-11-06T07:30:22.052Z,93.48
2018-11-06T07:32:51.116Z,93.66
2018-11-06T07:35:20.593Z,93.00
2018-11-06T07:37:49.495Z,93.53
2018-11-06T07:40:19.753Z,93.60
2018-11-06T07:42:48.717Z,94.14
2018-11-06T07:45:19.022Z,93.95
2018-11-06T07:47:47.957Z,94.42
2018-11-06T07:50:17.117Z,93.96
2018-11-06T07:52:46.171Z,93.94
2018-11-06T07:55:17.386Z,93.79
2018-11-06T07:57:46.489Z,93.14
2018-11-06T08:00:18.741Z,93.41
2018-11-06T08:02:48.436Z,93.55
2018-11-06T08:05:17.848Z,93.01
2018-11-06T08:07:47.802Z,93.10
2018-11-06T08:10:16.775Z,93.68
2018-11-06T08:12:47.296Z,94.22
2018-11-06T08:15:16.341Z,95.59
2018-11-06T08:17:45.714Z,95.63
2018-11-06T08:20:15.045Z,95.86
2018-11-06T08:22:43.987Z,94.79
2018-11-06T08:25:14.087Z,95.80
2018-11-06T08:27:43.768Z,94.91
2018-11-06T08:30:13.277Z,94.20
2018-11-06T08:32:42.749Z,93.46
2018-11-06T08:35:13.854Z,94.29
2018-11-06T08:37:43.014Z,94.78
2018-11-06T08:40:13.288Z,96.19
2018-11-06T08:42:42.444Z,96.45
2018-11-06T08:45:12.495Z,94.07
2018-11-06T08:47:42.554Z,95.38
2018-11-06T08:50:13.028Z,94.90
2018-11-06T08:52:42.281Z,94.46
2018-11-06T08:55:12.387Z,95.12
2018-11-06T08:57:41.892Z,95.09
2018-11-06T09:00:12.852Z,96.35
2018-11-06T09:02:42.447Z,96.56
2018-11-06T09:05:12.788Z,97.43
2018-11-06T09:07:41.818Z,98.82
2018-11-06T09:10:11.898Z,96.73
2018-11-06T09:12:41.058Z,95.37
2018-11-06T09:15:12.688Z,94.96
2018-11-06T09:17:41.675Z,95.82
2018-11-06T09:20:11.962Z,97.48
2018-11-06T09:22:41.063Z,98.60
2018-11-06T09:25:11.714Z,98.43
2018-11-06T09:27:41.640Z,98.83
2018-11-06T09:30:12.829Z,100.00
2018-11-06T09:32:41.767Z,100.00
2018-11-06T09:35:11.732Z,100.00
2018-11-06T09:37:41.190Z,100.00
2018-11-06T09:40:12.326Z,100.00
2018-11-06T09:42:41.311Z,100.00
2018-11-06T09:45:10.980Z,100.00
2018-11-06T09:47:39.929Z,100.00
2018-11-06T09:50:11.204Z,100.00
2018-11-06T09:52:41.302Z,100.00
2018-11-06T09:55:10.318Z,100.00
2018-11-06T09:57:39.281Z,100.00
2018-11-06T10:00:11.158Z,100.00
2018-11-06T10:02:40.130Z,100.00
2018-11-06T10:05:09.968Z,100.00
2018-11-06T10:07:39.181Z,99.23
2018-11-06T10:10:10.218Z,99.84
2018-11-06T10:12:39.588Z,98.65
2018-11-06T10:15:10.526Z,98.91
2018-11-06T10:17:40.448Z,100.00
2018-11-06T10:20:10.243Z,99.04
2018-11-06T10:22:39.237Z,100.00
2018-11-06T10:25:08.537Z,99.72
2018-11-06T10:27:38.248Z,100.00
2018-11-06T10:30:10.337Z,100.00
2018-11-06T10:32:39.298Z,100.00
2018-11-06T10:35:08.811Z,100.00
2018-11-06T10:37:37.819Z,100.00
2018-11-06T10:40:09.770Z,100.00
2018-11-06T10:42:38.791Z,100.00
2018-11-06T10:45:08.284Z,100.00
2018-11-06T10:47:37.529Z,99.99
2018-11-06T10:50:09.022Z,100.00
2018-11-06T10:52:38.012Z,100.00
2018-11-06T10:55:07.588Z,99.68
2018-11-06T10:57:37.835Z,99.91
2018-11-06T11:00:16.496Z,100.00
2018-11-06T11:02:50.915Z,99.04
2018-11-06T11:05:20.800Z,98.91
2018-11-06T11:07:49.782Z,97.96
2018-11-06T11:10:18.802Z,99.07
2018-11-06T11:12:47.772Z,99.00
2018-11-06T11:15:16.741Z,99.94
2018-11-06T11:17:45.728Z,100.00
2018-11-06T11:20:15.114Z,99.77
2018-11-06T11:22:44.098Z,99.60
2018-11-06T11:25:14.354Z,99.65
2018-11-06T11:27:43.828Z,99.27
2018-11-06T11:30:14.764Z,99.49
2018-11-06T11:32:46.449Z,98.21
2018-11-06T11:35:15.728Z,98.52
2018-11-06T11:37:45.199Z,98.39
2018-11-06T11:40:15.681Z,98.32
2018-11-06T11:42:44.666Z,97.31
2018-11-06T11:45:14.580Z,96.93
2018-11-06T11:47:43.565Z,97.33
2018-11-06T11:50:13.693Z,97.44
2018-11-06T11:52:42.692Z,98.00
2018-11-06T11:55:11.773Z,97.54
2018-11-06T11:57:41.112Z,96.46
2018-11-06T12:00:12.377Z,96.97
2018-11-06T12:02:41.348Z,97.31
2018-11-06T12:05:10.970Z,97.02
2018-11-06T12:07:40.160Z,97.48
2018-11-06T12:10:10.367Z,97.07
2018-11-06T12:12:39.768Z,97.79
2018-11-06T12:15:12.204Z,97.59
2018-11-06T12:17:41.724Z,97.10
2018-11-06T12:20:11.310Z,96.52
2018-11-06T12:22:41.179Z,96.48
2018-11-06T12:25:10.705Z,95.60
2018-11-06T12:27:39.561Z,96.13
2018-11-06T12:30:10.387Z,96.33
2018-11-06T12:32:40.005Z,95.67
2018-11-06T12:35:09.900Z,96.15
2018-11-06T12:37:39.244Z,96.75
2018-11-06T12:40:09.666Z,96.78
2018-11-06T12:42:39.300Z,96.68
2018-11-06T12:45:10.206Z,96.32
2018-11-06T12:47:39.234Z,96.33
2018-11-06T12:50:08.701Z,96.12
2018-11-06T12:52:37.747Z,96.30
2018-11-06T12:55:07.945Z,95.57
2018-11-06T12:57:37.677Z,95.48
2018-11-06T13:00:09.881Z,95.29
2018-11-06T13:02:38.830Z,95.42
2018-11-06T13:05:08.060Z,94.52
2018-11-06T13:07:37.950Z,94.37
2018-11-06T13:10:07.083Z,95.04
2018-11-06T13:12:36.076Z,94.92
2018-11-06T13:15:05.971Z,95.28
2018-11-06T13:17:35.412Z,95.69
2018-11-06T13:20:05.517Z,94.90
2018-11-06T13:22:34.595Z,95.16
2018-11-06T13:25:03.707Z,94.61
2018-11-06T13:27:32.735Z,94.68
2018-11-06T13:30:01.755Z,94.36
2018-11-06T13:32:30.686Z,94.03
2018-11-06T13:34:59.647Z,94.72
2018-11-06T13:37:28.654Z,94.82
2018-11-06T13:39:57.605Z,95.45
2018-11-06T13:42:26.635Z,95.23
2018-11-06T13:44:55.815Z,95.71
2018-11-06T13:47:24.597Z,95.03
2018-11-06T13:49:53.590Z,94.33
2018-11-06T13:52:22.537Z,94.51
2018-11-06T13:54:51.550Z,95.71
2018-11-06T13:57:20.494Z,95.46
2018-11-06T13:59:49.628Z,95.49
2018-11-06T14:02:18.652Z,95.54
2018-11-06T14:04:47.657Z,95.27
2018-11-06T14:07:16.619Z,95.93
2018-11-06T14:09:45.591Z,96.35
2018-11-06T14:12:14.697Z,95.92
2018-11-06T14:14:43.667Z,95.64
2018-11-06T14:17:12.616Z,96.16
2018-11-06T14:19:41.621Z,95.98
2018-11-06T14:22:10.623Z,96.37
2018-11-06T14:24:39.585Z,96.14
2018-11-06T14:27:08.670Z,95.94
2018-11-06T14:29:37.607Z,95.89
2018-11-06T14:32:06.670Z,96.44
2018-11-06T14:34:35.647Z,96.63
2018-11-06T14:37:04.648Z,96.64
2018-11-06T14:39:33.604Z,96.69
2018-11-06T14:42:02.749Z,96.64
2018-11-06T14:44:31.728Z,96.27
2018-11-06T14:47:00.702Z,96.66
2018-11-06T14:49:29.855Z,96.75
2018-11-06T14:51:58.676Z,95.87
2018-11-06T14:54:28.219Z,95.96
2018-11-06T14:56:57.166Z,96.50
2018-11-06T14:59:26.124Z,96.17
2018-11-06T15:01:55.070Z,96.26
2018-11-06T15:04:24.141Z,95.98
2018-11-06T15:06:53.104Z,96.16
2018-11-06T15:09:22.063Z,96.49
2018-11-06T15:11:51.036Z,96.26
2018-11-06T15:14:20.037Z,97.17
2018-11-06T15:16:49.080Z,97.25
2018-11-06T15:19:18.038Z,97.10
2018-11-06T15:21:47.089Z,96.71
2018-11-06T15:24:16.048Z,97.53
2018-11-06T15:26:45.008Z,97.83
2018-11-06T15:29:13.987Z,97.27
2018-11-06T15:31:42.937Z,96.96
2018-11-06T15:34:11.905Z,97.55
2018-11-06T15:36:40.827Z,97.28
2018-11-06T15:39:09.895Z,97.46
2018-11-06T15:41:40.927Z,97.52
2018-11-06T15:44:09.841Z,97.62
2018-11-06T15:46:38.820Z,97.81
2018-11-06T15:49:07.842Z,97.38
2018-11-06T15:51:36.782Z,97.54
2018-11-06T15:54:06.043Z,97.54
2018-11-06T15:56:35.100Z,97.62
2018-11-06T15:59:04.189Z,97.88
2018-11-06T16:01:33.220Z,98.04
2018-11-06T16:04:02.214Z,98.13
2018-11-06T16:06:31.230Z,97.32
2018-11-06T16:09:00.160Z,97.26
2018-11-06T16:11:29.127Z,97.45
2018-11-06T16:13:58.122Z,97.41
2018-11-06T16:16:27.272Z,97.34
2018-11-06T16:18:56.274Z,97.71
2018-11-06T16:21:25.328Z,97.44
2018-11-06T16:23:54.279Z,97.50
2018-11-06T16:26:23.268Z,97.31
2018-11-06T16:28:52.591Z,97.62
2018-11-06T16:31:21.583Z,97.74
2018-11-06T16:33:50.507Z,97.25
2018-11-06T16:36:19.612Z,97.53
2018-11-06T16:38:48.596Z,97.41
2018-11-06T16:41:17.616Z,97.40
2018-11-06T16:43:46.588Z,97.74
2018-11-06T16:46:15.509Z,97.79
2018-11-06T16:48:44.483Z,96.95
2018-11-06T16:51:13.489Z,96.48
2018-11-06T16:53:42.446Z,96.51
2018-11-06T16:56:11.395Z,96.28
2018-11-06T16:58:40.353Z,96.88
2018-11-06T17:01:09.500Z,96.14
2018-11-06T17:03:38.289Z,97.07
2018-11-06T17:06:11.756Z,96.28
2018-11-06T17:08:40.741Z,96.06
2018-11-06T17:11:09.753Z,96.30
2018-11-06T17:13:38.760Z,97.08
2018-11-06T17:16:07.749Z,96.91
2018-11-06T17:18:36.722Z,97.33
2018-11-06T17:21:05.930Z,97.23
2018-11-06T17:23:34.947Z,97.73
2018-11-06T17:26:03.941Z,97.04
2018-11-06T17:28:32.909Z,96.85
2018-11-06T17:31:01.915Z,97.69
2018-11-06T17:33:30.904Z,97.60
2018-11-06T17:35:59.894Z,96.84
2018-11-06T17:38:28.863Z,97.36
2018-11-06T17:40:57.833Z,97.18
2018-11-06T17:43:26.840Z,97.17
2018-11-06T17:45:55.882Z,96.47
2018-11-06T17:48:24.975Z,96.95
2018-11-06T17:50:54.164Z,96.52
2018-11-06T17:53:23.201Z,95.51
2018-11-06T17:55:52.167Z,95.91
2018-11-06T17:58:21.183Z,95.99
2018-11-06T18:00:50.250Z,96.17
2018-11-06T18:03:19.254Z,95.42
2018-11-06T18:05:48.248Z,95.85
2018-11-06T18:08:17.257Z,96.01
2018-11-06T18:10:46.309Z,95.84
2018-11-06T18:13:15.248Z,96.07
2018-11-06T18:15:44.289Z,96.27
2018-11-06T18:18:13.333Z,96.13
2018-11-06T18:20:42.284Z,96.27
2018-11-06T18:23:11.297Z,96.69
2018-11-06T18:25:40.388Z,96.63
2018-11-06T18:28:09.289Z,96.75
2018-11-06T18:30:38.324Z,96.49
2018-11-06T18:33:07.378Z,95.45
2018-11-06T18:35:36.386Z,95.94
2018-11-06T18:38:05.512Z,95.61
2018-11-06T18:40:34.500Z,94.97
2018-11-06T18:43:03.486Z,94.98
2018-11-06T18:45:32.523Z,94.70
2018-11-06T18:48:01.517Z,94.91
2018-11-06T18:50:30.545Z,95.47
2018-11-06T18:52:59.598Z,94.80
2018-11-06T18:55:28.641Z,95.25
2018-11-06T18:57:57.747Z,95.49
2018-11-06T19:00:26.679Z,94.79
2018-11-06T19:02:55.714Z,94.93
2018-11-06T19:05:25.625Z,94.28
2018-11-06T19:07:55.236Z,94.21
2018-11-06T19:10:24.208Z,94.23
2018-11-06T19:12:53.213Z,93.84
2018-11-06T19:15:23.357Z,94.25
2018-11-06T19:17:52.464Z,94.36
2018-11-06T19:20:21.448Z,95.06
2018-11-06T19:22:50.448Z,95.40
2018-11-06T19:25:19.507Z,94.86
2018-11-06T19:27:48.534Z,95.35
2018-11-06T19:30:18.922Z,95.98
2018-11-06T19:32:48.239Z,95.83
2018-11-06T19:35:17.210Z,95.38
2018-11-06T19:37:46.251Z,94.78
2018-11-06T19:40:16.365Z,94.76
2018-11-06T19:42:46.447Z,95.00
2018-11-06T19:45:15.592Z,94.38
2018-11-06T19:47:44.623Z,94.11
2018-11-06T19:50:15.222Z,94.79
2018-11-06T19:52:44.279Z,95.31
2018-11-06T19:55:14.458Z,94.79
2018-11-06T19:57:43.558Z,95.79
2018-11-06T20:00:16.336Z,95.23
2018-11-06T20:02:46.563Z,94.72
2018-11-06T20:05:18.038Z,94.79
2018-11-06T20:07:48.125Z,95.46
2018-11-06T20:10:18.604Z,95.30
2018-11-06T20:12:48.705Z,95.03
2018-11-06T20:15:18.022Z,95.36
2018-11-06T20:17:47.367Z,94.38
2018-11-06T20:20:19.001Z,94.63
2018-11-06T20:22:47.969Z,94.59
2018-11-06T20:25:16.996Z,95.35
2018-11-06T20:27:46.049Z,94.72
2018-11-06T20:30:17.156Z,94.44
2018-11-06T20:32:46.189Z,95.26
2018-11-06T20:35:15.739Z,95.04
2018-11-06T20:37:44.817Z,94.86
2018-11-06T20:40:15.767Z,94.59
2018-11-06T20:42:45.407Z,95.28
2018-11-06T20:45:15.564Z,96.81
2018-11-06T20:47:44.947Z,95.49
2018-11-06T20:50:15.557Z,95.71
2018-11-06T20:52:44.651Z,95.05
2018-11-06T20:55:14.770Z,95.02
2018-11-06T20:57:43.835Z,94.55
2018-11-06T21:00:19.180Z,95.06
2018-11-06T21:02:48.828Z,95.44
2018-11-06T21:05:17.884Z,94.77
2018-11-06T21:07:48.318Z,94.29
2018-11-06T21:10:18.820Z,94.17
2018-11-06T21:12:47.830Z,94.13
2018-11-06T21:15:16.873Z,94.89
2018-11-06T21:17:46.960Z,94.59
2018-11-06T21:20:16.575Z,95.01
2018-11-06T21:22:45.538Z,94.94
2018-11-06T21:25:14.699Z,95.71
2018-11-06T21:27:44.027Z,95.81
2018-11-06T21:30:15.507Z,95.42
2018-11-06T21:32:48.138Z,95.03
2018-11-06T21:35:17.279Z,94.83
2018-11-06T21:37:46.244Z,94.28
2018-11-06T21:40:16.493Z,94.61
2018-11-06T21:42:46.161Z,95.43
2018-11-06T21:45:17.285Z,95.53
2018-11-06T21:47:46.996Z,96.68
2018-11-06T21:50:16.926Z,96.26
2018-11-06T21:52:45.993Z,96.77
2018-11-06T21:55:16.243Z,95.47
2018-11-06T21:57:45.230Z,95.27
2018-11-06T22:00:15.570Z,94.35
2018-11-06T22:02:44.578Z,94.43
2018-11-06T22:05:14.952Z,94.07
2018-11-06T22:07:44.320Z,94.10
2018-11-06T22:10:14.441Z,94.42
2018-11-06T22:12:44.657Z,94.60
2018-11-06T22:15:14.747Z,94.85
2018-11-06T22:17:43.751Z,94.48
2018-11-06T22:20:14.465Z,94.91
2018-11-06T22:22:44.422Z,94.97
2018-11-06T22:25:13.470Z,95.26
2018-11-06T22:27:42.565Z,95.28
2018-11-06T22:30:12.857Z,95.19
2018-11-06T22:32:42.777Z,94.79
2018-11-06T22:35:13.138Z,94.69
2018-11-06T22:37:42.216Z,94.25
2018-11-06T22:40:12.685Z,94.71
2018-11-06T22:42:41.687Z,94.08
2018-11-06T22:45:12.885Z,94.03
2018-11-06T22:47:42.055Z,94.48
2018-11-06T22:50:16.378Z,94.25
2018-11-06T22:52:46.065Z,93.97
2018-11-06T22:55:15.140Z,94.33
2018-11-06T22:57:44.382Z,93.02
2018-11-06T23:00:18.167Z,94.10
2018-11-06T23:02:47.087Z,93.37
2018-11-06T23:05:16.090Z,93.47
2018-11-06T23:07:50.331Z,92.45
2018-11-06T23:10:19.347Z,92.99
2018-11-06T23:12:48.322Z,92.92
2018-11-06T23:15:17.367Z,93.04
2018-11-06T23:17:46.333Z,92.93
2018-11-06T23:20:15.287Z,92.84
2018-11-06T23:22:44.272Z,92.47
2018-11-06T23:25:13.246Z,93.30
2018-11-06T23:27:43.574Z,92.50
2018-11-06T23:30:17.136Z,93.25
2018-11-06T23:32:46.555Z,91.70
2018-11-06T23:35:15.493Z,92.16
2018-11-06T23:37:44.552Z,91.50
2018-11-06T23:40:13.617Z,92.01
2018-11-06T23:42:42.644Z,91.58
2018-11-06T23:45:11.641Z,92.33
2018-11-06T23:47:40.601Z,92.17
2018-11-06T23:50:10.332Z,91.70
2018-11-06T23:52:39.636Z,91.44
2018-11-06T23:55:09.116Z,92.54
2018-11-06T23:57:38.259Z,91.50
